createdAt,value
2023-08-29T00:01:15.858Z,22.44
2023-08-29T00:04:22.715Z,22.43
2023-08-29T00:07:29.385Z,22.42
2023-08-29T00:10:36.463Z,22.42
2023-08-29T00:13:42.614Z,22.43
2023-08-29T00:16:48.053Z,22.44
2023-08-29T00:19:53.398Z,22.47
2023-08-29T00:22:59.565Z,22.46
2023-08-29T00:26:07.121Z,22.47
2023-08-29T00:29:11.909Z,22.46
2023-08-29T00:32:19.593Z,22.44
2023-08-29T00:35:25.661Z,22.43
2023-08-29T00:38:33.772Z,22.43
2023-08-29T00:41:40.030Z,22.42
2023-08-29T00:44:47.320Z,22.40
2023-08-29T00:47:54.452Z,22.38
2023-08-29T00:51:01.128Z,22.35
2023-08-29T00:54:08.573Z,22.34
2023-08-29T00:57:14.542Z,22.34
2023-08-29T01:00:22.115Z,22.32
2023-08-29T01:03:30.219Z,22.26
2023-08-29T01:06:36.705Z,22.23
2023-08-29T01:09:41.962Z,22.20
2023-08-29T01:13:06.127Z,22.16
2023-08-29T01:16:13.705Z,22.12
2023-08-29T01:19:25.237Z,22.10
2023-08-29T01:23:12.271Z,22.12
2023-08-29T01:26:30.236Z,22.12
2023-08-29T01:29:36.460Z,22.12
2023-08-29T01:32:42.713Z,22.11
2023-08-29T01:35:51.564Z,22.10
2023-08-29T01:38:58.639Z,22.07
2023-08-29T01:42:05.639Z,22.05
2023-08-29T01:45:11.649Z,22.05
2023-08-29T01:48:18.068Z,22.02
2023-08-29T01:51:25.351Z,22.00
2023-08-29T01:54:32.423Z,21.96
2023-08-29T01:57:39.653Z,21.98
2023-08-29T02:00:47.576Z,21.97
2023-08-29T02:03:53.136Z,21.99
2023-08-29T02:07:00.354Z,21.99
2023-08-29T02:10:05.482Z,21.99
2023-08-29T02:13:10.738Z,22.00
2023-08-29T02:16:19.468Z,22.01
2023-08-29T02:19:25.425Z,22.01
2023-08-29T02:22:31.597Z,22.02
2023-08-29T02:25:37.757Z,22.02
2023-08-29T02:28:45.040Z,22.05
2023-08-29T02:31:50.902Z,22.07
2023-08-29T02:34:57.586Z,22.09
2023-08-29T02:38:07.062Z,22.08
2023-08-29T02:41:12.357Z,22.06
2023-08-29T02:44:18.214Z,22.05
2023-08-29T02:47:24.810Z,22.03
2023-08-29T02:50:30.184Z,22.02
2023-08-29T02:53:38.339Z,21.99
2023-08-29T02:56:44.292Z,21.95
2023-08-29T02:59:49.259Z,21.95
2023-08-29T03:02:55.750Z,21.93
2023-08-29T03:06:12.697Z,21.93
2023-08-29T03:09:18.995Z,21.95
2023-08-29T03:12:25.827Z,21.99
2023-08-29T03:15:31.280Z,21.99
2023-08-29T03:18:38.413Z,22.00
2023-08-29T03:21:44.268Z,22.02
2023-08-29T03:24:50.212Z,22.03
2023-08-29T03:27:58.087Z,22.05
2023-08-29T03:31:03.782Z,22.06
2023-08-29T03:34:10.712Z,22.07
2023-08-29T03:37:16.912Z,22.10
2023-08-29T03:40:25.628Z,22.13
2023-08-29T03:43:33.155Z,22.15
2023-08-29T03:46:41.694Z,22.17
2023-08-29T03:49:49.880Z,22.22
2023-08-29T03:52:55.532Z,22.25
2023-08-29T03:56:00.782Z,22.28
2023-08-29T03:59:08.569Z,22.31
2023-08-29T04:02:16.556Z,22.33
2023-08-29T04:05:28.179Z,22.34
2023-08-29T04:08:34.434Z,22.37
2023-08-29T04:11:39.669Z,22.40
2023-08-29T04:14:44.724Z,22.44
2023-08-29T04:17:50.503Z,22.47
2023-08-29T04:20:50.715Z,22.50
2023-08-29T04:23:43.556Z,22.51
2023-08-29T04:26:48.279Z,22.56
2023-08-29T04:29:54.750Z,22.60
2023-08-29T04:33:01.101Z,22.64
2023-08-29T04:36:07.887Z,22.70
2023-08-29T04:39:14.464Z,22.74
2023-08-29T04:42:23.538Z,22.78
2023-08-29T04:45:28.958Z,22.82
2023-08-29T04:48:33.708Z,22.86
2023-08-29T04:51:39.335Z,22.92
2023-08-29T04:54:45.171Z,22.99
2023-08-29T04:57:50.301Z,23.06
2023-08-29T05:00:56.567Z,23.11
2023-08-29T05:04:03.196Z,23.18
2023-08-29T05:07:08.057Z,23.25
2023-08-29T05:10:13.191Z,23.33
2023-08-29T05:13:19.563Z,23.40
2023-08-29T05:16:25.352Z,23.49
2023-08-29T05:19:31.625Z,23.56
2023-08-29T05:22:37.528Z,23.63
2023-08-29T05:25:43.448Z,23.70
2023-08-29T05:28:49.926Z,23.77
2023-08-29T05:31:55.820Z,23.85
2023-08-29T05:35:01.424Z,23.94
2023-08-29T05:38:07.850Z,24.00
2023-08-29T05:41:14.090Z,24.08
2023-08-29T05:44:20.610Z,24.16
2023-08-29T05:47:25.713Z,24.25
2023-08-29T05:50:30.646Z,24.33
2023-08-29T05:53:35.880Z,24.41
2023-08-29T05:56:41.327Z,24.47
2023-08-29T05:59:48.579Z,24.49
2023-08-29T06:02:55.949Z,24.52
2023-08-29T06:06:07.079Z,24.59
2023-08-29T06:09:14.631Z,24.68
2023-08-29T06:12:39.266Z,24.79
2023-08-29T06:15:45.088Z,24.94
2023-08-29T06:18:51.178Z,25.08
2023-08-29T06:21:57.164Z,25.19
2023-08-29T06:25:02.622Z,25.28
2023-08-29T06:28:08.953Z,25.40
2023-08-29T06:31:22.590Z,25.50
2023-08-29T06:34:28.767Z,25.58
2023-08-29T06:37:35.311Z,25.65
2023-08-29T06:40:41.917Z,25.71
2023-08-29T06:43:48.625Z,25.78
2023-08-29T06:46:54.605Z,25.86
2023-08-29T06:50:01.045Z,25.92
2023-08-29T06:53:25.192Z,25.99
2023-08-29T06:56:31.407Z,26.06
2023-08-29T06:59:37.098Z,26.11
2023-08-29T07:02:42.350Z,26.15
2023-08-29T07:05:49.950Z,26.15
2023-08-29T07:09:13.840Z,26.18
2023-08-29T07:12:37.116Z,26.25
2023-08-29T07:15:42.142Z,26.32
2023-08-29T07:18:47.947Z,26.38
2023-08-29T07:21:56.233Z,26.44
2023-08-29T07:25:03.824Z,26.51
2023-08-29T07:28:09.650Z,26.59
2023-08-29T07:31:34.159Z,26.66
2023-08-29T07:34:58.016Z,26.71
2023-08-29T07:38:05.818Z,26.78
2023-08-29T07:41:13.964Z,26.87
2023-08-29T07:44:20.926Z,26.94
2023-08-29T07:47:26.283Z,27.02
2023-08-29T07:50:31.975Z,27.07
2023-08-29T07:53:39.817Z,27.08
2023-08-29T07:56:48.739Z,27.13
2023-08-29T07:59:54.729Z,27.19
2023-08-29T08:03:03.578Z,27.25
2023-08-29T08:06:09.613Z,27.30
2023-08-29T08:09:17.333Z,27.37
2023-08-29T08:12:22.818Z,27.48
2023-08-29T08:15:30.041Z,27.58
2023-08-29T08:18:35.724Z,27.68
2023-08-29T08:21:43.578Z,27.77
2023-08-29T08:24:49.105Z,27.88
2023-08-29T08:27:58.278Z,27.95
2023-08-29T08:31:04.264Z,28.03
2023-08-29T08:34:11.449Z,28.13
2023-08-29T08:37:18.059Z,28.22
2023-08-29T08:40:26.362Z,28.28
2023-08-29T08:43:31.775Z,28.34
2023-08-29T08:46:54.860Z,28.41
2023-08-29T08:50:18.600Z,28.49
2023-08-29T08:53:42.415Z,28.56
2023-08-29T08:56:47.736Z,28.63
2023-08-29T08:59:54.803Z,28.70
2023-08-29T09:03:00.075Z,28.70
2023-08-29T09:06:12.147Z,28.77
2023-08-29T09:09:37.472Z,28.82
2023-08-29T09:12:42.971Z,28.91
2023-08-29T09:15:50.701Z,28.99
2023-08-29T09:19:00.175Z,29.08
2023-08-29T09:22:06.583Z,29.19
2023-08-29T09:25:20.211Z,29.28
2023-08-29T09:28:27.257Z,29.36
2023-08-29T09:31:32.629Z,29.42
2023-08-29T09:34:46.495Z,29.60
2023-08-29T09:38:01.200Z,29.60
2023-08-29T09:41:07.157Z,29.67
2023-08-29T09:44:12.489Z,29.73
2023-08-29T09:47:24.322Z,29.81
2023-08-29T09:50:32.569Z,29.88
2023-08-29T09:53:38.026Z,29.93
2023-08-29T09:56:43.778Z,29.95
2023-08-29T09:59:50.781Z,30.04
2023-08-29T10:02:58.893Z,30.14
2023-08-29T10:06:05.498Z,30.24
2023-08-29T10:09:13.847Z,30.26
2023-08-29T10:12:18.702Z,30.36
2023-08-29T10:19:34.945Z,30.51
2023-08-29T10:22:43.936Z,30.63
2023-08-29T10:25:49.018Z,30.74
2023-08-29T10:28:54.361Z,30.82
2023-08-29T10:32:00.641Z,30.89
2023-08-29T10:35:00.584Z,30.90
2023-08-29T10:37:53.371Z,30.97
2023-08-29T10:40:59.316Z,31.02
2023-08-29T10:44:05.897Z,31.07
2023-08-29T10:47:31.950Z,31.14
2023-08-29T10:50:38.874Z,31.20
2023-08-29T10:53:44.774Z,31.28
2023-08-29T10:57:00.661Z,31.34
2023-08-29T11:00:07.323Z,31.39
2023-08-29T11:03:14.349Z,31.47
2023-08-29T11:06:20.777Z,31.55
2023-08-29T11:09:38.031Z,31.64
2023-08-29T11:12:43.482Z,31.71
2023-08-29T11:16:11.000Z,31.80
2023-08-29T11:19:22.554Z,31.91
2023-08-29T11:22:31.177Z,32.00
2023-08-29T11:25:38.672Z,32.05
2023-08-29T11:28:45.360Z,32.02
2023-08-29T11:31:56.978Z,32.05
2023-08-29T11:35:07.497Z,32.18
2023-08-29T11:38:15.416Z,32.32
2023-08-29T11:41:35.529Z,32.45
2023-08-29T11:45:01.993Z,32.50
2023-08-29T11:47:42.865Z,32.53
2023-08-29T11:50:51.603Z,32.60
2023-08-29T11:53:56.926Z,32.67
2023-08-29T11:57:04.126Z,32.73
2023-08-29T12:00:12.819Z,32.71
2023-08-29T12:03:19.062Z,32.63
2023-08-29T12:06:28.468Z,32.60
2023-08-29T12:09:39.418Z,32.63
2023-08-29T12:12:48.752Z,32.70
2023-08-29T12:15:55.015Z,32.71
2023-08-29T12:19:01.162Z,32.75
2023-08-29T12:22:10.308Z,32.74
2023-08-29T12:25:14.793Z,32.75
2023-08-29T12:28:22.996Z,32.73
2023-08-29T12:31:29.335Z,32.73
2023-08-29T12:34:35.376Z,32.73
2023-08-29T12:37:40.993Z,32.68
2023-08-29T12:40:47.119Z,32.62
2023-08-29T12:43:53.322Z,32.55
2023-08-29T12:47:00.345Z,32.49
2023-08-29T12:50:08.450Z,32.45
2023-08-29T12:53:14.824Z,32.40
2023-08-29T12:56:21.022Z,32.37
2023-08-29T12:59:25.561Z,32.32
2023-08-29T13:02:31.594Z,32.29
2023-08-29T13:05:37.925Z,32.29
2023-08-29T13:08:45.160Z,32.29
2023-08-29T13:11:51.330Z,32.27
2023-08-29T13:14:58.007Z,32.24
2023-08-29T13:18:02.710Z,32.26
2023-08-29T13:21:08.878Z,32.27
2023-08-29T13:24:15.216Z,32.27
2023-08-29T13:27:20.174Z,32.28
2023-08-29T13:30:27.061Z,32.28
2023-08-29T13:33:32.669Z,32.26
2023-08-29T13:36:40.709Z,32.20
2023-08-29T13:39:48.926Z,32.21
2023-08-29T13:42:55.007Z,32.22
2023-08-29T13:46:00.941Z,32.20
2023-08-29T13:49:07.195Z,32.18
2023-08-29T13:52:16.205Z,32.16
2023-08-29T13:55:22.800Z,32.14
2023-08-29T13:58:27.947Z,32.15
2023-08-29T14:01:33.703Z,32.16
2023-08-29T14:04:40.523Z,32.13
2023-08-29T14:07:46.158Z,32.06
2023-08-29T14:10:51.743Z,32.04
2023-08-29T14:13:57.801Z,32.01
2023-08-29T14:17:03.506Z,31.98
2023-08-29T14:20:10.439Z,31.96
2023-08-29T14:23:15.960Z,31.93
2023-08-29T14:26:26.407Z,31.92
2023-08-29T14:29:33.020Z,31.90
2023-08-29T14:32:37.865Z,31.89
2023-08-29T14:35:46.065Z,31.85
2023-08-29T14:38:52.050Z,31.83
2023-08-29T14:42:00.123Z,31.82
2023-08-29T14:45:07.530Z,31.79
2023-08-29T14:48:13.890Z,31.77
2023-08-29T14:51:23.204Z,31.73
2023-08-29T14:54:28.817Z,31.70
2023-08-29T14:57:34.512Z,31.65
2023-08-29T15:00:42.520Z,31.58
2023-08-29T15:03:48.279Z,31.51
2023-08-29T15:06:54.779Z,31.38
2023-08-29T15:10:01.532Z,31.23
2023-08-29T15:13:08.341Z,31.06
2023-08-29T15:16:19.018Z,30.90
2023-08-29T15:19:25.993Z,30.74
2023-08-29T15:22:33.878Z,30.59
2023-08-29T15:25:41.168Z,30.49
2023-08-29T15:28:47.353Z,30.42
2023-08-29T15:31:54.790Z,30.32
2023-08-29T15:35:01.453Z,30.24
2023-08-29T15:38:06.706Z,30.16
2023-08-29T15:41:13.097Z,30.12
2023-08-29T15:44:18.008Z,30.07
2023-08-29T15:47:23.655Z,29.99
2023-08-29T15:50:29.893Z,29.90
2023-08-29T15:53:35.468Z,29.81
2023-08-29T15:56:43.542Z,29.71
2023-08-29T15:59:50.176Z,29.60
2023-08-29T16:02:57.914Z,29.50
2023-08-29T16:06:05.261Z,29.36
2023-08-29T16:09:11.532Z,29.25
2023-08-29T16:12:19.904Z,29.14
2023-08-29T16:15:26.270Z,29.02
2023-08-29T16:18:33.400Z,28.90
2023-08-29T16:21:39.722Z,28.78
2023-08-29T16:24:46.545Z,28.66
2023-08-29T16:27:52.892Z,28.53
2023-08-29T16:30:58.235Z,28.43
2023-08-29T16:34:03.755Z,28.21
2023-08-29T16:37:09.169Z,28.21
2023-08-29T16:40:15.772Z,28.14
2023-08-29T16:43:21.762Z,28.03
2023-08-29T16:46:26.985Z,27.94
2023-08-29T16:49:33.480Z,27.84
2023-08-29T16:52:38.757Z,27.73
2023-08-29T16:55:46.935Z,27.64
2023-08-29T16:58:52.987Z,27.57
2023-08-29T17:01:58.992Z,27.48
2023-08-29T17:05:07.686Z,27.39
2023-08-29T17:08:13.550Z,27.30
2023-08-29T17:11:20.589Z,27.22
2023-08-29T17:14:29.058Z,27.14
2023-08-29T17:17:35.134Z,27.06
2023-08-29T17:20:40.651Z,27.01
2023-08-29T17:23:46.731Z,26.94
2023-08-29T17:26:53.296Z,26.88
2023-08-29T17:29:59.016Z,26.81
2023-08-29T17:33:06.273Z,26.76
2023-08-29T17:36:14.346Z,26.68
2023-08-29T17:39:22.047Z,26.63
2023-08-29T17:42:27.700Z,26.57
2023-08-29T17:45:33.722Z,26.51
2023-08-29T17:48:40.478Z,26.44
2023-08-29T17:51:46.887Z,26.39
2023-08-29T17:54:52.510Z,26.34
2023-08-29T17:57:58.572Z,26.31
2023-08-29T18:01:04.640Z,26.25
2023-08-29T18:04:15.657Z,26.20
2023-08-29T18:07:22.516Z,26.14
2023-08-29T18:10:31.697Z,26.09
2023-08-29T18:13:38.312Z,26.03
2023-08-29T18:16:44.298Z,25.98
2023-08-29T18:19:53.436Z,25.94
2023-08-29T18:22:59.880Z,25.88
2023-08-29T18:26:14.468Z,25.84
2023-08-29T18:29:19.929Z,25.80
2023-08-29T18:32:25.679Z,25.75
2023-08-29T18:35:31.661Z,25.70
2023-08-29T18:38:39.211Z,25.67
2023-08-29T18:41:45.887Z,25.64
2023-08-29T18:44:55.458Z,25.60
2023-08-29T18:48:04.760Z,25.55
2023-08-29T18:51:10.593Z,25.51
2023-08-29T18:54:16.273Z,25.46
2023-08-29T18:57:24.198Z,25.42
2023-08-29T19:00:32.691Z,25.39
2023-08-29T19:03:39.763Z,25.35
2023-08-29T19:06:48.832Z,25.33
2023-08-29T19:09:55.184Z,25.32
2023-08-29T19:13:02.872Z,25.28
2023-08-29T19:16:11.045Z,25.24
2023-08-29T19:19:17.029Z,25.17
2023-08-29T19:22:24.489Z,25.14
2023-08-29T19:25:30.410Z,25.08
2023-08-29T19:28:38.232Z,25.05
2023-08-29T19:31:43.886Z,25.02
2023-08-29T19:34:50.311Z,24.99
2023-08-29T19:37:56.270Z,24.96
2023-08-29T19:41:01.713Z,24.92
2023-08-29T19:44:09.068Z,24.88
2023-08-29T19:47:14.547Z,24.85
2023-08-29T19:50:21.047Z,24.83
2023-08-29T19:53:26.873Z,24.81
2023-08-29T19:56:32.943Z,24.77
2023-08-29T19:59:39.320Z,24.74
2023-08-29T20:02:47.580Z,24.72
2023-08-29T20:05:54.095Z,24.68
2023-08-29T20:09:01.294Z,24.65
2023-08-29T20:12:07.712Z,24.61
2023-08-29T20:15:12.593Z,24.57
2023-08-29T20:18:18.960Z,24.51
2023-08-29T20:21:25.920Z,24.48
2023-08-29T20:24:34.559Z,24.46
2023-08-29T20:27:39.597Z,24.44
2023-08-29T20:30:51.744Z,24.40
2023-08-29T20:33:59.728Z,24.38
2023-08-29T20:37:05.252Z,24.34
2023-08-29T20:40:12.544Z,24.30
2023-08-29T20:43:17.499Z,24.27
2023-08-29T20:46:22.741Z,24.25
2023-08-29T20:49:32.076Z,24.22
2023-08-29T20:52:38.371Z,24.19
2023-08-29T20:55:44.182Z,24.16
2023-08-29T20:58:50.785Z,24.14
2023-08-29T21:01:56.924Z,24.10
2023-08-29T21:05:05.421Z,24.07
2023-08-29T21:08:12.251Z,24.02
2023-08-29T21:11:18.783Z,23.98
2023-08-29T21:14:24.967Z,23.94
2023-08-29T21:17:32.361Z,23.90
2023-08-29T21:20:40.314Z,23.87
2023-08-29T21:23:47.965Z,23.84
2023-08-29T21:26:56.675Z,23.82
2023-08-29T21:30:02.973Z,23.79
2023-08-29T21:33:08.952Z,23.77
2023-08-29T21:36:15.272Z,23.73
2023-08-29T21:39:23.334Z,23.71
2023-08-29T21:42:29.130Z,23.68
2023-08-29T21:45:35.397Z,23.66
2023-08-29T21:48:40.957Z,23.63
2023-08-29T21:51:47.535Z,23.60
2023-08-29T21:54:54.919Z,23.56
2023-08-29T21:58:01.072Z,23.52
2023-08-29T22:01:09.092Z,23.47
2023-08-29T22:04:17.006Z,23.42
2023-08-29T22:07:25.063Z,23.38
2023-08-29T22:10:30.123Z,23.36
2023-08-29T22:13:35.958Z,23.32
2023-08-29T22:16:41.482Z,23.29
2023-08-29T22:19:48.027Z,23.25
2023-08-29T22:22:55.025Z,23.24
2023-08-29T22:26:02.807Z,23.20
2023-08-29T22:29:08.461Z,23.17
2023-08-29T22:32:14.311Z,23.15
2023-08-29T22:35:21.400Z,23.11
2023-08-29T22:38:28.214Z,23.08
2023-08-29T22:41:35.658Z,23.03
2023-08-29T22:44:41.168Z,22.97
2023-08-29T22:47:49.212Z,22.92
2023-08-29T22:50:56.413Z,22.87
2023-08-29T22:54:01.548Z,22.84
2023-08-29T22:57:07.816Z,22.79
2023-08-29T23:00:14.817Z,22.77
2023-08-29T23:03:21.085Z,22.74
2023-08-29T23:06:28.630Z,22.70
2023-08-29T23:09:35.095Z,22.67
2023-08-29T23:12:40.788Z,22.62
2023-08-29T23:15:45.639Z,22.58
2023-08-29T23:18:51.977Z,22.54
2023-08-29T23:21:57.241Z,22.51
2023-08-29T23:25:03.181Z,22.47
2023-08-29T23:28:08.182Z,22.43
2023-08-29T23:31:15.124Z,22.39
2023-08-29T23:34:21.695Z,22.35
2023-08-29T23:37:28.768Z,22.30
2023-08-29T23:40:34.738Z,22.27
2023-08-29T23:43:40.040Z,22.25
2023-08-29T23:46:45.116Z,22.20
2023-08-29T23:49:52.617Z,22.17
2023-08-29T23:52:58.779Z,22.15
2023-08-29T23:56:05.089Z,22.13
2023-08-29T23:59:12.073Z,22.09
